Time;durP1;ratioP1;P1;durP2;ratioP2;P2;SDS_P1;SDS_P2;PMS_P1;PMS_P2;Temp;Humidity;BMP_temperature;BMP_pressure;BME280_temperature;BME280_humidity;BME280_pressure;Samples;Min_cycle;Max_cycle;Signal;HPM_P1;HPM_P2
2021/03/20 00:01:20;;;;;;;11.83;5.77;;;;;;;-2.28;64.63;99268.83;2210748;81;21428;-78
2021/03/20 00:04:21;;;;;;;10.83;6.47;;;;;;;-2.31;64.70;99275.89;2211492;81;21123;-78
2021/03/20 00:07:22;;;;;;;10.47;5.33;;;;;;;-2.34;64.68;99280.80;2210233;81;21184;-78
2021/03/20 00:10:23;;;;;;;11.97;5.13;;;;;;;-2.40;64.20;99280.77;2211094;81;21495;-79
2021/03/20 00:13:24;;;;;;;10.33;5.60;;;;;;;-2.49;64.24;99280.12;2210300;81;21244;-79
2021/03/20 00:16:25;;;;;;;8.57;4.63;;;;;;;-2.52;64.44;99282.08;2211570;81;21122;-79
2021/03/20 00:19:26;;;;;;;12.33;5.63;;;;;;;-2.51;64.64;99291.91;2211454;81;21154;-79
2021/03/20 00:22:30;;;;;;;10.20;5.77;;;;;;;-2.51;64.63;99289.36;2211548;81;21109;-79
2021/03/20 00:25:31;;;;;;;14.00;5.67;;;;;;;-2.50;64.76;99289.47;2211366;81;21134;-78
2021/03/20 00:28:32;;;;;;;11.90;5.80;;;;;;;-2.52;64.45;99287.58;2211164;81;21293;-78
2021/03/20 00:31:34;;;;;;;10.20;5.60;;;;;;;-2.53;64.42;99290.92;2210817;81;21138;-78
2021/03/20 00:34:35;;;;;;;10.47;5.57;;;;;;;-2.59;64.24;99284.60;2210390;81;21118;-79
2021/03/20 00:37:36;;;;;;;8.80;5.50;;;;;;;-2.62;64.60;99292.41;2211270;81;21229;-78
2021/03/20 00:40:37;;;;;;;11.47;5.37;;;;;;;-2.65;64.64;99297.30;2211223;81;21094;-78
2021/03/20 00:43:38;;;;;;;11.00;5.37;;;;;;;-2.65;64.85;99294.36;2211273;81;21499;-78
2021/03/20 00:46:39;;;;;;;7.67;4.50;;;;;;;-2.62;64.93;99298.41;2210043;81;21126;-78
2021/03/20 00:49:40;;;;;;;12.00;4.93;;;;;;;-2.57;64.78;99311.16;2209681;81;21304;-78
2021/03/20 00:52:41;;;;;;;9.53;5.13;;;;;;;-2.57;64.97;99300.05;2209135;81;21467;-78
2021/03/20 00:55:42;;;;;;;7.63;4.77;;;;;;;-2.59;64.65;99307.99;2210497;81;21114;-78
2021/03/20 00:58:43;;;;;;;10.10;4.33;;;;;;;-2.62;64.86;99307.35;2210451;81;21277;-78
2021/03/20 01:01:44;;;;;;;8.70;4.83;;;;;;;-2.59;65.10;99311.44;2210295;81;21130;-79
2021/03/20 01:04:45;;;;;;;12.13;5.20;;;;;;;-2.55;64.79;99306.54;2210904;81;21288;-78
2021/03/20 01:07:46;;;;;;;9.83;5.47;;;;;;;-2.51;65.04;99316.20;2211195;81;21166;-78
2021/03/20 01:10:47;;;;;;;11.07;5.20;;;;;;;-2.53;64.66;99314.81;2209449;81;21162;-78
2021/03/20 01:13:48;;;;;;;13.47;5.07;;;;;;;-2.51;64.62;99310.70;2210488;81;21547;-77
2021/03/20 01:16:49;;;;;;;8.03;4.40;;;;;;;0.16;68.18;99296.12;2210135;81;21315;-77
2021/03/20 01:19:50;;;;;;;16.30;6.57;;;;;;;-0.05;61.53;99297.86;2210911;81;21086;-78
2021/03/20 01:22:51;;;;;;;11.63;6.03;;;;;;;-0.82;59.89;99304.57;2210767;81;21687;-77
2021/03/20 01:25:52;;;;;;;9.67;4.93;;;;;;;-1.42;61.08;99305.80;2210678;81;21231;-77
2021/03/20 01:28:53;;;;;;;13.07;5.80;;;;;;;-1.68;62.20;99304.48;2208813;81;21133;-78
2021/03/20 01:31:54;;;;;;;10.93;5.40;;;;;;;-1.83;62.47;99299.58;2208068;81;21110;-77
2021/03/20 01:34:58;;;;;;;13.60;5.73;;;;;;;-1.94;63.00;99308.70;2207946;81;21087;-77
2021/03/20 01:37:59;;;;;;;8.97;5.47;;;;;;;-2.05;63.33;99301.08;2207722;81;21141;-78
2021/03/20 01:41:00;;;;;;;11.33;5.20;;;;;;;-2.13;63.38;99304.39;2208318;81;21257;-77
2021/03/20 01:44:01;;;;;;;9.87;5.47;;;;;;;-2.27;63.02;99297.05;2208547;81;21102;-77
2021/03/20 01:47:02;;;;;;;12.13;5.60;;;;;;;-2.37;63.48;99311.66;2208105;81;21122;-78
2021/03/20 01:50:03;;;;;;;13.47;5.47;;;;;;;-2.48;63.03;99304.91;2208715;81;21141;-78
2021/03/20 01:53:04;;;;;;;9.63;4.47;;;;;;;-2.60;63.08;99317.72;2208221;81;21079;-77
2021/03/20 01:56:05;;;;;;;10.73;5.03;;;;;;;-2.65;63.16;99313.91;2207505;81;21172;-77
2021/03/20 01:59:06;;;;;;;13.87;5.80;;;;;;;-2.67;63.36;99320.20;2207828;81;21074;-77
2021/03/20 02:02:07;;;;;;;15.80;6.73;;;;;;;-2.67;63.71;99312.92;2207423;81;21122;-77
2021/03/20 02:05:08;;;;;;;10.47;5.77;;;;;;;-2.68;63.54;99317.53;2207266;81;21110;-77
2021/03/20 02:08:11;;;;;;;10.80;4.93;;;;;;;-2.68;63.40;99321.37;2208350;81;21142;-78
2021/03/20 02:11:18;;;;;;;10.53;4.97;;;;;;;-2.71;63.12;99314.37;2208357;81;21174;-78
2021/03/20 02:14:19;;;;;;;7.70;4.80;;;;;;;-2.69;63.58;99323.42;2207215;81;21126;-78
2021/03/20 02:17:20;;;;;;;9.83;4.80;;;;;;;-2.67;63.23;99321.48;2208242;81;21404;-77
2021/03/20 02:20:21;;;;;;;10.43;4.73;;;;;;;-2.67;63.54;99321.48;2207115;81;21143;-78
2021/03/20 02:23:22;;;;;;;10.53;5.30;;;;;;;-2.68;62.98;99319.70;2207151;81;21133;-78
2021/03/20 02:26:23;;;;;;;10.20;4.57;;;;;;;-2.67;63.21;99323.14;2207360;81;21253;-78
2021/03/20 02:29:24;;;;;;;10.40;4.83;;;;;;;-2.68;63.05;99324.81;2207789;80;21145;-78
2021/03/20 02:32:25;;;;;;;9.83;4.90;;;;;;;-2.67;62.89;99324.42;2209932;81;21240;-78
2021/03/20 02:35:26;;;;;;;9.03;4.70;;;;;;;-2.64;63.06;99325.91;2210812;81;21259;-78
2021/03/20 02:38:27;;;;;;;8.30;4.57;;;;;;;-2.60;63.03;99330.50;2211426;81;21244;-78
2021/03/20 02:41:28;;;;;;;12.73;5.40;;;;;;;-2.56;62.96;99326.09;2210997;81;21542;-78
2021/03/20 02:44:29;;;;;;;10.87;4.97;;;;;;;-2.54;62.23;99328.77;2210166;81;21245;-78
2021/03/20 02:47:30;;;;;;;11.17;5.23;;;;;;;-2.54;61.96;99326.20;2209815;81;21126;-78
2021/03/20 02:50:31;;;;;;;12.33;4.90;;;;;;;-2.54;61.73;99324.93;2210822;81;21416;-78
2021/03/20 02:53:32;;;;;;;9.57;5.10;;;;;;;-2.50;62.39;99330.75;2209514;81;21127;-78
2021/03/20 02:56:33;;;;;;;7.83;5.20;;;;;;;-2.44;62.28;99334.62;2209753;81;21117;-78
2021/03/20 02:59:34;;;;;;;14.50;6.33;;;;;;;-2.37;61.48;99344.50;2210828;81;21075;-77
2021/03/20 03:02:35;;;;;;;13.40;7.53;;;;;;;-2.42;60.47;99349.69;2210995;81;21527;-78
2021/03/20 03:05:36;;;;;;;30.17;14.80;;;;;;;-2.45;61.32;99348.58;2210072;81;21249;-78
2021/03/20 03:08:38;;;;;;;13.23;7.90;;;;;;;-2.46;61.20;99354.47;2210174;80;21170;-78
2021/03/20 03:11:39;;;;;;;16.63;6.33;;;;;;;-2.46;60.58;99357.92;2210536;81;21265;-78
2021/03/20 03:14:40;;;;;;;14.40;6.67;;;;;;;-2.49;60.28;99360.65;2210276;81;21229;-78
2021/03/20 03:17:41;;;;;;;15.60;7.93;;;;;;;-2.54;60.39;99359.05;2210811;81;21118;-78
2021/03/20 03:20:42;;;;;;;16.47;7.30;;;;;;;-2.55;60.70;99357.27;2209817;81;21110;-78
2021/03/20 03:23:43;;;;;;;25.00;10.73;;;;;;;-2.57;60.58;99360.11;2210110;81;21138;-78
2021/03/20 03:26:44;;;;;;;15.97;7.43;;;;;;;-2.61;61.18;99365.36;2210442;80;21376;-78
2021/03/20 03:29:45;;;;;;;14.43;6.73;;;;;;;-2.66;60.99;99369.25;2210872;80;21142;-78
2021/03/20 03:32:46;;;;;;;9.43;5.30;;;;;;;-2.75;61.02;99372.42;2210771;81;21233;-78
2021/03/20 03:35:47;;;;;;;14.10;5.97;;;;;;;-2.79;61.14;99369.55;2211180;81;21071;-78
2021/03/20 03:38:48;;;;;;;12.87;6.70;;;;;;;-2.88;60.66;99376.16;2211157;81;21281;-78
2021/03/20 03:41:49;;;;;;;14.90;6.60;;;;;;;-2.96;61.07;99379.82;2210937;81;21257;-79
2021/03/20 03:44:50;;;;;;;15.00;6.80;;;;;;;-2.98;61.50;99381.38;2210760;81;21239;-78
2021/03/20 03:47:52;;;;;;;12.10;6.03;;;;;;;-3.00;61.45;99381.65;2209774;81;21154;-78
2021/03/20 03:50:53;;;;;;;16.17;6.40;;;;;;;-3.06;61.11;99379.92;2210599;81;21233;-78
2021/03/20 03:53:57;;;;;;;16.73;6.70;;;;;;;-3.19;61.37;99377.25;2210663;81;21260;-79
2021/03/20 03:56:59;;;;;;;15.20;6.37;;;;;;;-3.30;61.75;99380.29;2210893;81;21241;-78
2021/03/20 04:00:00;;;;;;;18.00;6.83;;;;;;;-3.39;61.81;99380.88;2211222;81;21126;-79
2021/03/20 04:03:02;;;;;;;15.53;7.03;;;;;;;-3.44;62.00;99377.09;2210876;81;21086;-78
2021/03/20 04:06:03;;;;;;;16.93;6.90;;;;;;;-3.51;62.19;99389.75;2210393;81;21257;-78
2021/03/20 04:09:04;;;;;;;17.53;7.03;;;;;;;-3.64;62.09;99403.25;2210346;81;21174;-79
2021/03/20 04:12:05;;;;;;;14.77;7.77;;;;;;;-3.77;61.97;99399.27;2210167;81;21574;-77
2021/03/20 04:15:06;;;;;;;23.57;8.77;;;;;;;-3.87;62.10;99399.34;2211026;81;21130;-78
2021/03/20 04:18:07;;;;;;;16.93;8.20;;;;;;;-4.00;62.38;99408.09;2210604;81;21110;-79
2021/03/20 04:21:08;;;;;;;19.57;8.43;;;;;;;-4.16;62.84;99417.49;2212978;81;21126;-81
2021/03/20 04:24:09;;;;;;;19.53;8.53;;;;;;;-4.28;63.25;99417.42;2210953;81;21246;-80
2021/03/20 04:27:10;;;;;;;19.47;9.23;;;;;;;-4.35;63.73;99420.61;2209023;81;21610;-80
2021/03/20 04:30:11;;;;;;;17.60;8.33;;;;;;;-4.43;63.93;99421.67;2212531;80;21276;-80
2021/03/20 04:33:12;;;;;;;20.97;9.10;;;;;;;-4.49;64.22;99425.51;2216629;80;21249;-80
2021/03/20 04:36:13;;;;;;;21.20;8.60;;;;;;;-4.58;64.82;99431.53;2216551;80;21142;-79
2021/03/20 04:39:14;;;;;;;23.80;9.33;;;;;;;-4.63;64.88;99428.63;2216985;80;21122;-79
2021/03/20 04:42:15;;;;;;;19.67;8.77;;;;;;;-4.68;65.28;99433.73;2217043;80;21543;-79
2021/03/20 04:45:16;;;;;;;18.63;8.37;;;;;;;-4.70;65.17;99431.45;2217404;80;21177;-79
2021/03/20 04:48:17;;;;;;;25.17;9.13;;;;;;;-4.73;65.51;99434.12;2216110;80;21622;-80
2021/03/20 04:51:18;;;;;;;23.13;9.37;;;;;;;-4.76;65.80;99443.69;2216026;80;21244;-80
2021/03/20 04:54:19;;;;;;;24.53;8.83;;;;;;;-4.77;66.15;99439.75;2215918;80;21464;-80
2021/03/20 04:57:20;;;;;;;22.47;9.37;;;;;;;-4.82;66.38;99446.63;2215694;80;21291;-80
2021/03/20 05:00:21;;;;;;;25.80;8.97;;;;;;;-4.85;66.24;99451.48;2216030;80;21346;-79
2021/03/20 05:03:22;;;;;;;21.77;8.83;;;;;;;-4.88;66.37;99446.52;2215196;80;21149;-80
2021/03/20 05:06:23;;;;;;;20.13;8.13;;;;;;;-4.87;66.82;99445.75;2215337;80;21253;-80
2021/03/20 05:09:24;;;;;;;22.90;9.13;;;;;;;-4.87;66.68;99448.30;2213878;80;21292;-80
2021/03/20 05:12:27;;;;;;;18.77;8.40;;;;;;;-4.81;66.62;99453.50;2213483;80;21734;-80
2021/03/20 05:15:28;;;;;;;23.50;9.43;;;;;;;-4.75;66.55;99456.93;2213504;80;21256;-80
2021/03/20 05:18:29;;;;;;;20.50;8.90;;;;;;;-4.68;66.72;99471.05;2213773;80;21248;-80
2021/03/20 05:21:30;;;;;;;20.43;8.80;;;;;;;-4.67;66.65;99477.92;2213610;80;21118;-80
2021/03/20 05:24:31;;;;;;;44.97;19.30;;;;;;;-4.58;66.89;99475.73;2214098;80;21138;-80
2021/03/20 05:27:32;;;;;;;20.70;11.33;;;;;;;-4.51;66.95;99478.39;2214573;80;21237;-80
2021/03/20 05:30:33;;;;;;;24.83;13.50;;;;;;;-4.42;66.85;99479.52;2212571;80;21304;-81
2021/03/20 05:33:37;;;;;;;31.20;14.47;;;;;;;-4.30;66.74;99476.70;2209326;80;21547;-80
2021/03/20 05:36:38;;;;;;;26.43;11.10;;;;;;;-4.25;66.68;99475.02;2209354;80;21248;-79
2021/03/20 05:39:39;;;;;;;18.17;8.37;;;;;;;-4.16;66.63;99483.78;2209296;80;21514;-81
2021/03/20 05:42:42;;;;;;;21.53;9.07;;;;;;;-4.07;66.59;99484.50;2208801;81;21154;-80
2021/03/20 05:45:43;;;;;;;18.37;9.17;;;;;;;-4.03;66.52;99493.28;2208483;81;21272;-80
2021/03/20 05:48:44;;;;;;;22.17;9.63;;;;;;;-3.97;66.43;99497.59;2208194;81;21142;-80
2021/03/20 05:51:45;;;;;;;76.77;13.77;;;;;;;-3.94;66.49;99497.45;2209570;81;21154;-80
2021/03/20 05:54:46;;;;;;;18.73;8.93;;;;;;;-3.81;66.44;99493.30;2209518;80;21130;-81
2021/03/20 05:57:47;;;;;;;21.83;8.97;;;;;;;-3.66;66.00;99497.04;2209010;81;21384;-77
2021/03/20 06:00:49;;;;;;;23.97;10.17;;;;;;;-3.55;65.93;99497.09;2208645;81;22087;-79
2021/03/20 06:03:50;;;;;;;44.73;20.37;;;;;;;-3.42;65.32;99498.06;2209083;80;21264;-79
2021/03/20 06:06:51;;;;;;;44.90;22.03;;;;;;;-3.29;65.00;99502.95;2208463;80;21138;-79
2021/03/20 06:09:52;;;;;;;36.83;17.70;;;;;;;-3.25;64.87;99502.41;2208343;80;21574;-79
2021/03/20 06:12:53;;;;;;;18.33;9.37;;;;;;;-3.25;64.53;99506.23;2207962;80;21155;-80
2021/03/20 06:15:54;;;;;;;23.13;11.30;;;;;;;-3.18;64.38;99513.97;2207293;81;21158;-79
2021/03/20 06:18:57;;;;;;;20.77;9.00;;;;;;;-3.09;64.05;99507.39;2207351;81;21126;-79
2021/03/20 06:21:58;;;;;;;42.30;18.53;;;;;;;-2.98;63.83;99515.09;2208277;81;21134;-80
2021/03/20 06:25:00;;;;;;;23.00;12.50;;;;;;;-2.80;63.61;99520.68;2209621;81;21138;-80
2021/03/20 06:28:01;;;;;;;22.80;12.40;;;;;;;-2.63;63.22;99517.70;2209662;80;21161;-80
2021/03/20 06:31:02;;;;;;;17.67;8.17;;;;;;;-2.54;62.60;99518.80;2209746;80;21142;-80
2021/03/20 06:34:03;;;;;;;18.43;8.73;;;;;;;-2.44;61.67;99514.86;2208703;81;21447;-80
2021/03/20 06:37:04;;;;;;;14.07;7.70;;;;;;;-2.39;62.02;99519.03;2208979;81;21142;-80
2021/03/20 06:40:05;;;;;;;14.37;7.83;;;;;;;-2.23;61.36;99525.76;2209457;81;21150;-79
2021/03/20 06:43:06;;;;;;;13.83;7.70;;;;;;;-2.20;60.76;99525.98;2209234;81;21154;-79
2021/03/20 06:46:07;;;;;;;20.33;9.10;;;;;;;-2.13;61.18;99525.64;2209769;81;21256;-80
2021/03/20 06:49:08;;;;;;;20.93;7.87;;;;;;;-2.01;60.69;99527.80;2210685;81;21166;-79
2021/03/20 06:52:09;;;;;;;17.07;7.33;;;;;;;-1.93;60.15;99534.36;2210189;81;21130;-78
2021/03/20 06:55:10;;;;;;;18.87;7.80;;;;;;;-1.94;59.92;99535.52;2210121;81;21130;-78
2021/03/20 06:58:11;;;;;;;16.63;7.83;;;;;;;-1.86;59.24;99541.19;2209344;81;21118;-78
2021/03/20 07:01:12;;;;;;;17.13;7.90;;;;;;;-1.75;59.23;99537.72;2209969;81;21542;-77
2021/03/20 07:04:13;;;;;;;17.33;7.37;;;;;;;-1.66;58.21;99538.41;2209219;81;21420;-78
2021/03/20 07:07:15;;;;;;;16.80;7.47;;;;;;;-1.57;58.01;99539.05;2207782;81;21140;-78
2021/03/20 07:10:16;;;;;;;11.83;6.60;;;;;;;-1.53;57.03;99538.48;2208319;81;21285;-79
2021/03/20 07:13:17;;;;;;;13.13;6.57;;;;;;;-1.43;56.23;99543.45;2206679;81;21280;-78
2021/03/20 07:16:18;;;;;;;8.93;5.60;;;;;;;-1.45;55.13;99545.02;2208050;81;21252;-78
2021/03/20 07:19:19;;;;;;;12.47;6.17;;;;;;;-1.39;54.43;99559.53;2208006;81;21110;-77
2021/03/20 07:22:20;;;;;;;13.47;6.77;;;;;;;-1.38;54.84;99555.30;2207338;81;21276;-77
2021/03/20 07:25:21;;;;;;;11.80;6.07;;;;;;;-1.30;54.57;99552.88;2208080;81;21145;-78
2021/03/20 07:28:22;;;;;;;13.57;5.93;;;;;;;-1.25;54.47;99563.44;2207645;81;21669;-77
2021/03/20 07:31:23;;;;;;;10.67;4.97;;;;;;;-1.10;55.13;99563.22;2211902;80;21272;-78
2021/03/20 07:34:27;;;;;;;11.10;6.00;;;;;;;-1.13;52.80;99554.93;2215456;80;21130;-77
2021/03/20 07:37:28;;;;;;;12.83;6.20;;;;;;;-1.05;52.94;99569.16;2214849;80;21231;-77
2021/03/20 07:40:30;;;;;;;19.17;8.43;;;;;;;-0.89;53.39;99559.95;2216733;80;21453;-78
2021/03/20 07:43:31;;;;;;;21.93;8.63;;;;;;;-0.64;53.22;99565.97;2216640;80;21252;-78
2021/03/20 07:46:32;;;;;;;78.00;24.97;;;;;;;-0.54;52.02;99567.47;2216301;80;21244;-77
2021/03/20 07:49:33;;;;;;;22.83;9.67;;;;;;;-0.42;52.73;99571.73;2215378;80;21482;-78
2021/03/20 07:52:34;;;;;;;14.07;5.80;;;;;;;-0.23;51.62;99576.80;2216295;80;21094;-77
2021/03/20 07:55:35;;;;;;;16.20;7.70;;;;;;;-0.20;50.90;99573.15;2215438;80;21605;-78
2021/03/20 07:58:37;;;;;;;12.40;6.37;;;;;;;-0.14;49.53;99574.44;2215638;80;21126;-77
2021/03/20 08:01:38;;;;;;;11.87;5.53;;;;;;;-0.06;48.79;99582.24;2215623;80;21252;-77
2021/03/20 08:04:39;;;;;;;18.80;7.07;;;;;;;-0.01;49.34;99570.59;2214481;80;21522;-77
2021/03/20 08:07:40;;;;;;;18.17;7.00;;;;;;;0.15;49.27;99578.92;2214861;80;21621;-77
2021/03/20 08:10:41;;;;;;;11.03;6.40;;;;;;;0.25;48.62;99580.39;2216098;80;21272;-77
2021/03/20 08:13:42;;;;;;;10.83;6.67;;;;;;;0.34;48.84;99575.84;2215487;80;21264;-77
2021/03/20 08:16:43;;;;;;;14.60;5.40;;;;;;;0.34;48.32;99594.22;2215484;80;21094;-77
2021/03/20 08:19:44;;;;;;;7.47;4.77;;;;;;;-0.02;46.75;99584.22;2215115;80;21582;-79
2021/03/20 08:22:45;;;;;;;13.07;5.53;;;;;;;-0.35;47.38;99590.98;2214431;80;21388;-77
2021/03/20 08:25:48;;;;;;;14.17;5.63;;;;;;;-0.55;48.27;99575.95;2214184;80;21161;-77
2021/03/20 08:28:49;;;;;;;11.87;5.70;;;;;;;-0.42;48.77;99577.27;2214239;80;21344;-77
2021/03/20 08:31:50;;;;;;;6.63;4.53;;;;;;;0.16;48.40;99578.52;2212128;80;21591;-78
2021/03/20 08:34:51;;;;;;;7.13;3.97;;;;;;;0.66;48.08;99576.97;2209568;81;21326;-78
2021/03/20 08:37:52;;;;;;;7.90;4.33;;;;;;;0.98;44.08;99584.13;2207773;81;21917;-77
2021/03/20 08:40:54;;;;;;;9.43;4.53;;;;;;;0.79;44.80;99584.25;2207784;81;21281;-77
2021/03/20 08:43:55;;;;;;;10.83;4.90;;;;;;;0.72;43.53;99590.20;2208494;81;21551;-77
2021/03/20 08:46:58;;;;;;;9.17;4.00;;;;;;;1.07;42.86;99592.00;2209367;81;21115;-77
2021/03/20 08:49:59;;;;;;;12.00;5.17;;;;;;;1.01;43.30;99592.91;2207583;81;21291;-77
2021/03/20 08:53:01;;;;;;;14.50;4.00;;;;;;;0.88;42.20;99603.23;2207440;81;21292;-77
2021/03/20 08:56:02;;;;;;;6.60;3.80;;;;;;;1.13;42.25;99601.77;2208005;81;21265;-77
2021/03/20 08:59:03;;;;;;;6.17;3.70;;;;;;;1.28;40.97;99606.16;2206688;81;21122;-78
2021/03/20 09:02:05;;;;;;;7.30;4.03;;;;;;;1.43;41.01;99602.72;2206691;80;21308;-78
2021/03/20 09:05:07;;;;;;;7.37;3.97;;;;;;;1.65;42.23;99601.02;2207317;81;21317;-77
2021/03/20 09:08:08;;;;;;;8.87;4.87;;;;;;;2.08;39.82;99604.02;2206576;81;21277;-77
2021/03/20 09:11:09;;;;;;;5.63;3.40;;;;;;;2.31;40.96;99597.99;2208343;81;21463;-77
2021/03/20 09:14:10;;;;;;;12.03;5.47;;;;;;;2.23;39.66;99606.58;2208929;81;21296;-77
2021/03/20 09:17:12;;;;;;;8.57;4.10;;;;;;;1.68;38.86;99608.52;2207516;81;21095;-77
2021/03/20 09:20:13;;;;;;;7.13;3.87;;;;;;;1.33;39.64;99609.00;2207068;81;21114;-77
2021/03/20 09:23:14;;;;;;;11.30;4.73;;;;;;;1.16;40.05;99616.09;2206912;81;21586;-76
2021/03/20 09:26:15;;;;;;;6.53;3.87;;;;;;;1.10;40.63;99620.47;2207566;81;21269;-77
2021/03/20 09:29:16;;;;;;;13.40;5.93;;;;;;;1.53;41.12;99615.33;2208181;81;21166;-79
2021/03/20 09:32:18;;;;;;;70.50;47.33;;;;;;;2.15;44.83;99619.42;2213525;80;21137;-78
2021/03/20 09:35:20;;;;;;;6.77;4.03;;;;;;;3.28;46.54;99614.95;2216726;80;21114;-79
2021/03/20 09:38:21;;;;;;;5.23;3.60;;;;;;;3.20;37.84;99627.85;2216031;80;21161;-79
2021/03/20 09:41:22;;;;;;;5.17;3.10;;;;;;;2.49;37.03;99629.94;2215754;80;21145;-79
2021/03/20 09:44:23;;;;;;;4.93;3.10;;;;;;;2.32;37.87;99634.14;2215031;80;21579;-80
2021/03/20 09:47:25;;;;;;;6.23;4.40;;;;;;;2.77;37.64;99620.78;2214880;80;21126;-79
2021/03/20 09:50:26;;;;;;;6.67;4.20;;;;;;;3.27;38.07;99614.47;2215703;80;21304;-78
2021/03/20 09:53:27;;;;;;;7.93;4.27;;;;;;;3.87;37.55;99625.32;2215246;80;21381;-78
2021/03/20 09:56:28;;;;;;;4.40;3.40;;;;;;;3.98;36.73;99617.30;2216068;80;21124;-77
2021/03/20 09:59:29;;;;;;;8.40;4.30;;;;;;;3.50;33.83;99624.73;2215871;80;21082;-78
2021/03/20 10:02:30;;;;;;;8.77;4.90;;;;;;;2.80;35.34;99635.13;2215872;80;21237;-77
2021/03/20 10:05:31;;;;;;;10.20;7.03;;;;;;;2.41;36.68;99633.38;2216407;80;21289;-77
2021/03/20 10:08:32;;;;;;;7.67;4.27;;;;;;;2.10;37.63;99641.05;2215412;80;21219;-78
2021/03/20 10:11:33;;;;;;;10.80;4.73;;;;;;;1.81;37.26;99648.38;2215350;80;22040;-78
2021/03/20 10:14:34;;;;;;;6.60;4.10;;;;;;;1.93;37.08;99645.63;2216098;80;21402;-77
2021/03/20 10:17:35;;;;;;;7.80;4.10;;;;;;;1.76;37.67;99647.21;2215156;80;21244;-77
2021/03/20 10:20:36;;;;;;;6.33;3.47;;;;;;;1.94;36.48;99642.65;2213952;80;21257;-78
2021/03/20 10:23:39;;;;;;;6.00;3.87;;;;;;;2.34;35.81;99639.38;2214794;80;21280;-77
2021/03/20 10:26:41;;;;;;;7.33;4.60;;;;;;;2.84;35.20;99644.81;2214059;80;21154;-78
2021/03/20 10:29:42;;;;;;;7.30;4.87;;;;;;;2.95;33.68;99644.99;2215559;80;21300;-78
2021/03/20 10:32:43;;;;;;;8.13;4.67;;;;;;;2.42;34.44;99650.61;2210316;80;21273;-78
2021/03/20 10:35:44;;;;;;;8.53;4.60;;;;;;;2.00;35.49;99649.44;2208161;81;21269;-77
2021/03/20 10:38:45;;;;;;;6.93;4.20;;;;;;;1.86;36.01;99651.21;2207353;81;21610;-78
2021/03/20 10:41:46;;;;;;;10.23;4.93;;;;;;;1.74;34.97;99651.78;2209139;81;21412;-77
2021/03/20 10:44:47;;;;;;;7.10;4.00;;;;;;;1.70;34.58;99657.11;2208081;81;21249;-78
2021/03/20 10:47:48;;;;;;;6.33;3.50;;;;;;;1.90;35.80;99653.17;2208994;81;21249;-78
2021/03/20 10:50:49;;;;;;;8.50;4.63;;;;;;;1.99;36.07;99650.24;2208635;81;21924;-78
2021/03/20 10:53:50;;;;;;;8.83;5.13;;;;;;;2.43;35.72;99642.08;2208675;81;21428;-78
2021/03/20 10:56:51;;;;;;;7.20;4.63;;;;;;;2.65;34.61;99654.91;2210003;81;21154;-78
2021/03/20 10:59:52;;;;;;;10.13;4.73;;;;;;;2.68;33.35;99652.50;2208917;81;21252;-77
2021/03/20 11:02:53;;;;;;;9.43;5.00;;;;;;;2.21;34.25;99664.45;2207256;81;21400;-77
2021/03/20 11:05:55;;;;;;;9.83;4.83;;;;;;;1.95;34.38;99659.88;2205662;81;21272;-77
2021/03/20 11:08:56;;;;;;;5.87;4.37;;;;;;;1.85;34.13;99647.75;2207274;81;21475;-78
2021/03/20 11:11:57;;;;;;;10.27;5.83;;;;;;;1.67;33.47;99657.33;2207616;81;21106;-77
2021/03/20 11:14:58;;;;;;;11.40;5.30;;;;;;;1.89;33.07;99657.83;2208300;81;21151;-79
2021/03/20 11:17:59;;;;;;;10.53;5.93;;;;;;;1.59;33.10;99650.44;2208401;81;21531;-78
2021/03/20 11:21:00;;;;;;;12.87;4.93;;;;;;;1.39;33.71;99654.78;2210175;81;21087;-78
2021/03/20 11:24:01;;;;;;;7.40;4.33;;;;;;;1.61;34.76;99653.99;2207785;81;21538;-77
2021/03/20 11:27:02;;;;;;;4.37;3.23;;;;;;;1.70;33.99;99655.82;2208041;81;21242;-77
2021/03/20 11:30:03;;;;;;;5.17;3.80;;;;;;;1.56;33.41;99655.40;2208422;81;21657;-78
2021/03/20 11:33:04;;;;;;;4.87;3.93;;;;;;;1.47;32.56;99647.12;2216801;80;21166;-78
2021/03/20 11:36:05;;;;;;;7.10;5.10;;;;;;;1.56;33.04;99647.68;2219489;80;21130;-77
2021/03/20 11:39:07;;;;;;;18.80;9.03;;;;;;;1.64;32.74;99644.27;2218828;80;21411;-78
2021/03/20 11:42:08;;;;;;;8.20;4.90;;;;;;;1.58;33.17;99639.25;2219763;80;21232;-77
2021/03/20 11:45:09;;;;;;;6.37;3.60;;;;;;;1.42;31.90;99636.96;2220143;80;21133;-77
2021/03/20 11:48:10;;;;;;;3.93;3.03;;;;;;;1.63;32.36;99629.23;2219801;80;21233;-77
2021/03/20 11:51:11;;;;;;;5.63;3.50;;;;;;;2.03;31.37;99629.02;2220479;80;21396;-78
2021/03/20 11:54:12;;;;;;;4.80;3.40;;;;;;;2.12;32.51;99619.25;2219592;80;21236;-79
2021/03/20 11:57:13;;;;;;;6.40;3.43;;;;;;;2.42;30.90;99628.70;2218889;80;21122;-77
2021/03/20 12:00:15;;;;;;;7.17;3.10;;;;;;;2.48;31.25;99625.59;2218516;80;21283;-77
2021/03/20 12:03:16;;;;;;;7.27;3.43;;;;;;;2.40;30.94;99618.72;2218003;80;21154;-77
2021/03/20 12:06:18;;;;;;;5.77;3.07;;;;;;;2.26;31.36;99620.91;2217599;80;21244;-78
2021/03/20 12:09:19;;;;;;;7.63;4.47;;;;;;;2.42;32.25;99621.38;2220387;80;21169;-78
2021/03/20 12:12:20;;;;;;;5.57;3.87;;;;;;;2.36;30.63;99622.33;2219049;80;21138;-77
2021/03/20 12:15:21;;;;;;;11.87;6.53;;;;;;;2.40;30.74;99613.97;2219404;80;21637;-78
2021/03/20 12:18:22;;;;;;;6.43;3.77;;;;;;;2.79;30.65;99608.87;2219253;80;21102;-78
2021/03/20 12:21:23;;;;;;;5.43;3.50;;;;;;;2.95;30.40;99624.77;2219383;80;21249;-77
2021/03/20 12:24:24;;;;;;;6.47;3.60;;;;;;;3.11;30.97;99608.91;2220057;80;21404;-77
2021/03/20 12:27:25;;;;;;;6.77;3.57;;;;;;;3.39;30.21;99614.22;2220734;80;21412;-77
2021/03/20 12:30:26;;;;;;;6.90;4.40;;;;;;;3.66;31.19;99615.68;2221004;80;21268;-77
2021/03/20 12:33:28;;;;;;;6.97;4.27;;;;;;;3.71;29.09;99604.30;2218531;80;21271;-78
2021/03/20 12:36:29;;;;;;;9.20;7.03;;;;;;;3.71;29.63;99601.30;2216419;80;21145;-78
2021/03/20 12:39:30;;;;;;;25.47;13.50;;;;;;;3.06;29.45;99613.33;2217220;80;21122;-78
2021/03/20 12:42:31;;;;;;;16.27;8.50;;;;;;;2.53;29.61;99613.45;2217905;80;21232;-79
2021/03/20 12:45:32;;;;;;;9.13;4.33;;;;;;;2.27;30.93;99620.12;2218184;80;21436;-78
2021/03/20 12:48:36;;;;;;;22.13;9.70;;;;;;;2.14;31.28;99614.67;2218219;80;21264;-77
2021/03/20 12:51:37;;;;;;;8.83;4.63;;;;;;;2.11;31.74;99615.78;2217846;80;21356;-78
2021/03/20 12:54:41;;;;;;;4.60;3.80;;;;;;;2.10;31.48;99614.00;2216821;80;21115;-78
2021/03/20 12:57:41;;;;;;;6.03;3.83;;;;;;;2.04;32.36;99615.34;2217674;80;22041;-78
2021/03/20 13:00:43;;;;;;;6.93;4.27;;;;;;;2.30;31.90;99613.84;2216528;80;21121;-77
2021/03/20 13:03:44;;;;;;;6.43;4.20;;;;;;;2.09;31.10;99617.78;2215861;80;21137;-77
2021/03/20 13:06:45;;;;;;;7.67;4.93;;;;;;;2.04;31.64;99602.47;2215586;80;22064;-77
2021/03/20 13:09:46;;;;;;;14.77;7.10;;;;;;;2.24;30.67;99610.92;2214418;80;21374;-77
2021/03/20 13:12:47;;;;;;;15.13;5.87;;;;;;;2.39;31.42;99615.66;2215386;80;21601;-77
2021/03/20 13:15:48;;;;;;;10.53;5.17;;;;;;;2.40;32.50;99614.85;2216741;80;21248;-77
2021/03/20 13:18:49;;;;;;;7.87;4.73;;;;;;;2.29;32.82;99623.66;2216770;80;21547;-77
2021/03/20 13:21:50;;;;;;;9.70;5.30;;;;;;;2.17;33.43;99612.67;2217269;80;21240;-78
2021/03/20 13:24:51;;;;;;;9.70;5.67;;;;;;;2.05;33.72;99607.70;2217689;80;21110;-78
2021/03/20 13:27:52;;;;;;;7.53;4.67;;;;;;;2.31;33.55;99607.89;2218074;80;21236;-78
2021/03/20 13:30:56;;;;;;;7.20;5.00;;;;;;;2.46;32.44;99612.62;2218036;80;21165;-77
2021/03/20 13:33:57;;;;;;;56.93;37.43;;;;;;;3.19;34.78;99600.28;2211965;80;21404;-77
2021/03/20 13:36:58;;;;;;;7.53;5.07;;;;;;;3.19;34.78;99600.28;2209164;80;21772;-78
2021/03/20 13:39:59;;;;;;;10.20;6.13;;;;;;;3.20;31.55;99597.78;2209299;81;21476;-77
2021/03/20 13:43:00;;;;;;;13.33;7.47;;;;;;;2.73;33.17;99595.64;2209147;81;21261;-77
2021/03/20 13:46:01;;;;;;;12.37;5.53;;;;;;;2.34;33.05;99596.87;2210010;81;21133;-77
2021/03/20 13:49:02;;;;;;;9.27;5.13;;;;;;;1.93;32.93;99591.95;2210361;81;21518;-77
2021/03/20 13:52:04;;;;;;;13.90;6.77;;;;;;;1.82;33.52;99593.52;2210738;81;21244;-77
2021/03/20 13:55:05;;;;;;;14.60;7.00;;;;;;;1.76;33.22;99587.12;2210201;81;21272;-77
2021/03/20 13:58:06;;;;;;;14.00;7.30;;;;;;;1.68;32.72;99578.03;2210311;81;21493;-77
2021/03/20 14:01:07;;;;;;;8.70;5.23;;;;;;;1.93;33.31;99575.22;2210636;81;21110;-77
2021/03/20 14:04:08;;;;;;;9.87;6.37;;;;;;;2.16;32.13;99575.72;2209991;81;21150;-77
2021/03/20 14:07:09;;;;;;;8.37;5.10;;;;;;;2.45;32.15;99580.32;2210458;81;21531;-78
2021/03/20 14:10:10;;;;;;;8.20;5.33;;;;;;;2.65;29.49;99586.60;2210909;81;21118;-77